Aviation Digital Data Service (ADDS)

Output produced by TAFs form (1236 UTC 26 November 2014)
found at http://aviationweather.gov/adds/tafs/
 
KAEG 261131Z 2612/2712 VRB06KT P6SM BKN250 
     FM261900 33008KT P6SM SCT250